Time;durP1;ratioP1;P1;durP2;ratioP2;P2;SDS_P1;SDS_P2;PMS_P1;PMS_P2;Temp;Humidity;BMP_temperature;BMP_pressure;BME280_temperature;BME280_humidity;BME280_pressure;Samples;Min_cycle;Max_cycle;Signal;HPM_P1;HPM_P2
2022/03/08 00:00:48;;;;;;;26.57;13.25;;;;;;;-0.43;100.00;100416.19;1705358;84;21075;-62
2022/03/08 00:03:15;;;;;;;26.15;13.93;;;;;;;-0.40;100.00;100411.14;1705192;84;21067;-62
2022/03/08 00:05:43;;;;;;;23.32;13.35;;;;;;;-0.41;100.00;100406.91;1705003;84;21052;-62
2022/03/08 00:08:10;;;;;;;25.35;13.25;;;;;;;-0.37;100.00;100411.13;1688846;84;21519;-62
2022/03/08 00:10:37;;;;;;;23.80;14.05;;;;;;;-0.37;100.00;100407.34;1705316;84;21036;-62
2022/03/08 00:13:04;;;;;;;24.50;13.28;;;;;;;-0.39;100.00;100412.81;1688890;84;21044;-62
2022/03/08 00:15:30;;;;;;;24.23;13.48;;;;;;;-0.37;100.00;100409.86;1705093;84;21079;-62
2022/03/08 00:17:58;;;;;;;26.62;13.70;;;;;;;-0.35;100.00;100410.70;1705219;84;21024;-62
2022/03/08 00:20:25;;;;;;;26.97;13.68;;;;;;;-0.30;100.00;100404.40;1705288;84;21075;-62
2022/03/08 00:22:53;;;;;;;26.97;13.60;;;;;;;-0.25;100.00;100406.05;1705347;83;21047;-62
2022/03/08 00:25:20;;;;;;;23.20;12.95;;;;;;;-0.24;100.00;100405.22;1705173;84;21512;-63
2022/03/08 00:27:48;;;;;;;25.48;14.30;;;;;;;-0.27;100.00;100400.16;1705300;84;21568;-62
2022/03/08 00:30:20;;;;;;;22.13;13.10;;;;;;;-0.31;100.00;100401.44;1704977;84;21572;-63
2022/03/08 00:32:48;;;;;;;21.33;11.75;;;;;;;-0.27;100.00;100398.05;1704972;84;21091;-62
2022/03/08 00:35:16;;;;;;;21.97;12.63;;;;;;;-0.23;100.00;100398.04;1705340;84;20997;-62
2022/03/08 00:37:47;;;;;;;18.92;11.00;;;;;;;-0.23;100.00;100395.52;1705442;84;21548;-63
2022/03/08 00:40:16;;;;;;;19.90;11.65;;;;;;;-0.21;100.00;100397.61;1705410;84;21060;-62
2022/03/08 00:42:44;;;;;;;20.82;11.43;;;;;;;-0.25;100.00;100398.47;1705126;84;21116;-63
2022/03/08 00:45:12;;;;;;;25.37;14.30;;;;;;;-0.30;100.00;100396.81;1704933;84;21095;-62
2022/03/08 00:47:40;;;;;;;29.55;15.40;;;;;;;-0.28;100.00;100391.33;1705055;84;21509;-62
2022/03/08 00:50:13;;;;;;;24.23;13.90;;;;;;;-0.19;100.00;100390.03;1705080;83;21041;-63
2022/03/08 00:52:41;;;;;;;24.12;13.98;;;;;;;-0.22;100.00;100379.50;1705470;84;21535;-63
2022/03/08 00:55:10;;;;;;;24.20;13.60;;;;;;;-0.19;100.00;100382.87;1704984;84;21056;-62
2022/03/08 00:57:38;;;;;;;23.65;13.00;;;;;;;-0.19;100.00;100376.11;1705207;84;21051;-63
2022/03/08 01:00:11;;;;;;;20.57;12.73;;;;;;;-0.14;100.00;100373.56;1705151;84;21044;-63
2022/03/08 01:02:38;;;;;;;21.12;12.53;;;;;;;-0.10;100.00;100372.71;1705120;84;21078;-63
2022/03/08 01:05:06;;;;;;;20.20;11.30;;;;;;;-0.05;100.00;100371.86;1690332;84;21048;-62
2022/03/08 01:07:33;;;;;;;17.70;10.78;;;;;;;0.00;100.00;100369.34;1685059;84;21047;-63
2022/03/08 01:10:06;;;;;;;19.82;11.22;;;;;;;-0.02;100.00;100370.60;1685028;85;21075;-62
2022/03/08 01:12:35;;;;;;;18.42;10.53;;;;;;;-0.06;100.00;100378.19;1685374;84;21538;-63
2022/03/08 01:15:04;;;;;;;19.32;11.20;;;;;;;-0.25;100.00;100371.91;1685383;84;21067;-62
2022/03/08 01:17:32;;;;;;;20.35;11.73;;;;;;;-0.34;100.00;100363.52;1685367;85;21538;-63
2022/03/08 01:19:59;;;;;;;23.57;12.23;;;;;;;-0.38;100.00;100370.69;1685093;85;21043;-63
2022/03/08 01:22:27;;;;;;;21.25;12.23;;;;;;;-0.31;100.00;100368.12;1685355;84;21036;-62
2022/03/08 01:24:54;;;;;;;22.15;12.20;;;;;;;-0.30;100.00;100367.30;1685105;85;21078;-62
2022/03/08 01:27:22;;;;;;;24.20;12.35;;;;;;;-0.24;100.00;100366.45;1685275;85;21575;-63
2022/03/08 01:29:49;;;;;;;22.00;12.03;;;;;;;-0.22;100.00;100371.91;1685045;84;21090;-63
2022/03/08 01:32:15;;;;;;;28.20;15.20;;;;;;;-0.23;100.00;100370.64;1685359;85;21039;-64
2022/03/08 01:34:45;;;;;;;29.30;16.02;;;;;;;-0.24;100.00;100371.50;1685052;85;21078;-63
2022/03/08 01:37:14;;;;;;;27.00;14.73;;;;;;;-0.21;100.00;100370.22;1685316;84;21063;-61
2022/03/08 01:39:41;;;;;;;25.55;14.58;;;;;;;-0.20;100.00;100375.71;1685357;85;21054;-62
2022/03/08 01:42:11;;;;;;;29.77;14.53;;;;;;;-0.23;100.00;100372.74;1667973;85;21558;-62
2022/03/08 01:44:42;;;;;;;22.95;13.43;;;;;;;-0.23;100.00;100372.74;1685416;84;21023;-61
2022/03/08 01:47:18;;;;;;;25.92;13.85;;;;;;;-0.16;100.00;100367.67;1685320;85;21007;-62
2022/03/08 01:49:46;;;;;;;22.60;13.98;;;;;;;-0.12;100.00;100370.61;1685282;84;21046;-62
2022/03/08 01:52:16;;;;;;;37.83;20.35;;;;;;;-0.19;100.00;100373.59;1685066;84;21047;-62
2022/03/08 01:54:44;;;;;;;35.15;19.75;;;;;;;-0.25;100.00;100374.86;1668308;85;21064;-62
2022/03/08 01:57:12;;;;;;;29.02;15.25;;;;;;;-0.35;100.00;100371.50;1685082;84;21570;-61
2022/03/08 01:59:41;;;;;;;23.18;13.95;;;;;;;-0.41;100.00;100367.72;1685336;84;21530;-62
2022/03/08 02:02:10;;;;;;;27.60;13.68;;;;;;;-0.42;100.00;100374.91;1685226;85;21067;-62
2022/03/08 02:04:38;;;;;;;27.55;14.18;;;;;;;-0.46;100.00;100365.20;1682795;84;21104;-62
2022/03/08 02:07:05;;;;;;;27.25;13.45;;;;;;;-0.44;100.00;100367.74;1679784;84;21255;-63
2022/03/08 02:09:33;;;;;;;24.43;13.53;;;;;;;-0.42;100.00;100364.36;1679915;85;21076;-62
2022/03/08 02:12:01;;;;;;;24.60;13.70;;;;;;;-0.44;100.00;100363.95;1680178;84;21614;-61
2022/03/08 02:14:29;;;;;;;25.32;14.23;;;;;;;-0.44;100.00;100367.74;1679909;84;21602;-62
2022/03/08 02:16:57;;;;;;;27.35;14.73;;;;;;;-0.48;100.00;100364.80;1680142;85;21048;-62
2022/03/08 02:19:24;;;;;;;26.62;14.20;;;;;;;-0.45;100.00;100362.25;1680087;85;21125;-62
2022/03/08 02:21:54;;;;;;;26.73;14.95;;;;;;;-0.45;100.00;100366.88;1679958;85;21051;-62
2022/03/08 02:24:21;;;;;;;25.92;14.50;;;;;;;-0.48;100.00;100364.80;1680114;85;21019;-61
2022/03/08 02:26:50;;;;;;;23.87;13.72;;;;;;;-0.52;100.00;100365.64;1679998;85;21020;-62
2022/03/08 02:29:17;;;;;;;29.02;15.80;;;;;;;-0.50;100.00;100363.95;1680283;84;21063;-61
2022/03/08 02:31:44;;;;;;;30.48;17.00;;;;;;;-0.47;100.00;100371.52;1680313;85;21491;-62
2022/03/08 02:34:11;;;;;;;30.10;16.40;;;;;;;-0.44;100.00;100375.33;1680333;85;21106;-62
2022/03/08 02:36:37;;;;;;;33.30;16.60;;;;;;;-0.45;100.00;100373.20;1680106;84;21543;-62
2022/03/08 02:39:05;;;;;;;33.30;17.37;;;;;;;-0.42;100.00;100372.37;1680256;85;21020;-63
2022/03/08 02:41:33;;;;;;;34.80;19.57;;;;;;;-0.45;100.00;100375.72;1680039;85;21108;-62
2022/03/08 02:44:00;;;;;;;36.98;20.10;;;;;;;-0.41;100.00;100375.30;1680061;85;22667;-62
2022/03/08 02:46:26;;;;;;;32.50;17.15;;;;;;;-0.41;100.00;100376.17;1680674;85;21551;-62
2022/03/08 02:48:54;;;;;;;29.90;15.63;;;;;;;-0.45;100.00;100376.16;1680089;84;21180;-62
2022/03/08 02:51:20;;;;;;;34.78;18.60;;;;;;;-0.41;100.00;100377.44;1680355;85;20995;-62
2022/03/08 02:53:47;;;;;;;30.90;16.70;;;;;;;-0.44;100.00;100376.16;1680078;84;21043;-62
2022/03/08 02:56:14;;;;;;;28.15;14.53;;;;;;;-0.51;100.00;100378.26;1680259;84;21048;-63
2022/03/08 02:58:41;;;;;;;26.77;13.15;;;;;;;-0.53;100.00;100378.69;1680305;85;21508;-62
2022/03/08 03:01:08;;;;;;;24.40;12.90;;;;;;;-0.57;100.00;100378.27;1680022;85;21125;-61
2022/03/08 03:03:35;;;;;;;25.43;13.78;;;;;;;-0.56;100.00;100378.70;1680202;85;21083;-61
2022/03/08 03:06:02;;;;;;;35.45;19.23;;;;;;;-0.54;100.00;100383.77;1695605;84;21551;-61
2022/03/08 03:08:29;;;;;;;50.70;24.67;;;;;;;-0.53;100.00;100390.49;1697492;83;21043;-62
2022/03/08 03:10:56;;;;;;;49.20;24.35;;;;;;;-0.52;100.00;100383.34;1697276;83;21019;-61
2022/03/08 03:13:23;;;;;;;53.17;24.33;;;;;;;-0.50;100.00;100373.64;1697370;83;21070;-61
2022/03/08 03:15:50;;;;;;;59.58;27.05;;;;;;;-0.52;100.00;100375.33;1697614;84;21054;-62
2022/03/08 03:18:18;;;;;;;52.93;27.13;;;;;;;-0.52;100.00;100374.49;1697395;83;21055;-62
2022/03/08 03:20:45;;;;;;;47.75;25.75;;;;;;;-0.52;100.00;100376.59;1697493;83;21078;-62
2022/03/08 03:23:13;;;;;;;50.40;26.33;;;;;;;-0.51;100.00;100373.63;1697312;83;21129;-62
2022/03/08 03:25:40;;;;;;;43.92;24.23;;;;;;;-0.44;100.00;100372.36;1697551;83;21042;-62
2022/03/08 03:28:07;;;;;;;42.40;21.82;;;;;;;-0.45;100.00;100376.16;1697326;83;21047;-62
2022/03/08 03:30:35;;;;;;;35.58;20.60;;;;;;;-0.46;100.00;100375.32;1697507;83;21582;-62
2022/03/08 03:33:03;;;;;;;37.78;20.40;;;;;;;-0.51;100.00;100378.69;1697708;83;21050;-62
2022/03/08 03:35:31;;;;;;;43.05;22.20;;;;;;;-0.46;100.00;100374.48;1697749;83;21089;-61
2022/03/08 03:37:57;;;;;;;40.75;21.52;;;;;;;-0.41;100.00;100383.76;1697419;83;21046;-62
2022/03/08 03:40:24;;;;;;;39.58;20.52;;;;;;;-0.40;100.00;100377.00;1697257;83;21101;-61
2022/03/08 03:42:51;;;;;;;39.08;20.35;;;;;;;-0.41;100.00;100375.30;1697478;83;21055;-62
2022/03/08 03:45:18;;;;;;;43.58;21.42;;;;;;;-0.43;100.00;100376.59;1679598;84;21507;-62
2022/03/08 03:47:45;;;;;;;43.98;21.27;;;;;;;-0.42;100.00;100371.11;1697294;83;21039;-62
2022/03/08 03:50:12;;;;;;;41.73;22.07;;;;;;;-0.42;100.00;100368.15;1697680;83;21050;-62
2022/03/08 03:52:40;;;;;;;34.92;18.07;;;;;;;-0.43;100.00;100373.20;1697508;83;21522;-62
2022/03/08 03:55:09;;;;;;;37.00;17.65;;;;;;;-0.47;100.00;100372.78;1698048;84;21007;-62
2022/03/08 03:57:36;;;;;;;33.02;16.82;;;;;;;-0.52;100.00;100374.49;1697505;83;22588;-62
2022/03/08 04:00:05;;;;;;;37.05;16.97;;;;;;;-0.57;100.00;100378.27;1697447;83;21455;-63
2022/03/08 04:02:34;;;;;;;35.83;17.98;;;;;;;-0.58;100.00;100376.59;1679053;84;21572;-62
2022/03/08 04:05:00;;;;;;;37.65;21.02;;;;;;;-0.61;100.00;100374.92;1699934;83;21150;-62
2022/03/08 04:07:27;;;;;;;46.73;20.85;;;;;;;-0.59;100.00;100372.80;1705037;83;21088;-62
2022/03/08 04:09:55;;;;;;;42.90;21.50;;;;;;;-0.62;100.00;100377.44;1704915;84;21060;-62
2022/03/08 04:12:22;;;;;;;49.05;21.95;;;;;;;-0.69;100.00;100373.22;1689092;84;21476;-62
2022/03/08 04:14:49;;;;;;;47.08;22.15;;;;;;;-0.70;100.00;100370.28;1688676;84;21071;-63
2022/03/08 04:17:16;;;;;;;40.10;20.17;;;;;;;-0.69;100.00;100377.88;1704535;84;21079;-62
2022/03/08 04:19:43;;;;;;;43.65;20.32;;;;;;;-0.71;100.00;100369.45;1705186;84;21123;-65
2022/03/08 04:22:10;;;;;;;42.33;20.32;;;;;;;-0.67;100.00;100372.40;1704907;83;21020;-62
2022/03/08 04:24:37;;;;;;;43.65;20.50;;;;;;;-0.67;100.00;100373.66;1705263;84;21520;-62
2022/03/08 04:27:05;;;;;;;44.40;21.02;;;;;;;-0.66;100.00;100379.13;1704750;83;21028;-63
2022/03/08 04:29:32;;;;;;;40.38;19.57;;;;;;;-0.66;100.00;100375.33;1705195;84;21528;-62
2022/03/08 04:32:01;;;;;;;40.10;19.25;;;;;;;-0.63;100.00;100370.69;1704891;84;21095;-62
2022/03/08 04:34:28;;;;;;;40.40;19.77;;;;;;;-0.62;100.00;100375.75;1704652;84;21096;-64
2022/03/08 04:36:55;;;;;;;42.40;20.85;;;;;;;-0.61;100.00;100379.98;1704993;84;21016;-62
2022/03/08 04:39:22;;;;;;;41.37;19.17;;;;;;;-0.62;100.00;100370.69;1705055;84;21153;-62
2022/03/08 04:41:49;;;;;;;38.58;20.23;;;;;;;-0.66;100.00;100377.02;1705231;84;21099;-63
2022/03/08 04:44:15;;;;;;;38.42;19.85;;;;;;;-0.66;100.00;100379.55;1705260;84;21032;-62
2022/03/08 04:46:42;;;;;;;39.53;20.82;;;;;;;-0.65;100.00;100378.30;1705174;84;21040;-62
2022/03/08 04:49:09;;;;;;;40.88;21.93;;;;;;;-0.60;100.00;100382.08;1704937;84;21024;-62
2022/03/08 04:51:38;;;;;;;42.50;21.45;;;;;;;-0.55;100.00;100375.74;1705064;84;21092;-62
2022/03/08 04:54:05;;;;;;;41.42;20.25;;;;;;;-0.52;100.00;100376.59;1705116;84;21064;-62
2022/03/08 04:56:31;;;;;;;37.23;19.20;;;;;;;-0.48;100.00;100376.17;1704950;83;21048;-62
2022/03/08 04:58:58;;;;;;;36.88;19.30;;;;;;;-0.44;100.00;100379.12;1705082;84;21056;-63
2022/03/08 05:01:26;;;;;;;36.33;19.10;;;;;;;-0.40;100.00;100385.86;1704691;83;21052;-63
2022/03/08 05:03:53;;;;;;;34.33;18.48;;;;;;;-0.37;100.00;100389.63;1705341;83;20973;-63
2022/03/08 05:06:19;;;;;;;35.10;20.17;;;;;;;-0.32;100.00;100386.69;1705079;83;21048;-62
2022/03/08 05:08:47;;;;;;;39.85;20.80;;;;;;;-0.27;100.00;100388.77;1704713;83;21095;-64
2022/03/08 05:11:14;;;;;;;38.45;20.40;;;;;;;-0.21;100.00;100381.60;1704931;84;21027;-62
2022/03/08 05:13:41;;;;;;;40.23;21.07;;;;;;;-0.11;100.00;100376.10;1705159;84;21120;-62
2022/03/08 05:16:08;;;;;;;35.52;18.95;;;;;;;-0.13;100.00;100385.39;1704831;84;21052;-62
2022/03/08 05:18:35;;;;;;;35.68;18.40;;;;;;;-0.13;100.00;100385.39;1704953;84;21048;-62
2022/03/08 05:21:02;;;;;;;33.23;19.05;;;;;;;-0.05;100.00;100381.14;1705408;84;21028;-61
2022/03/08 05:23:28;;;;;;;36.53;18.27;;;;;;;-0.01;100.00;100387.45;1704935;84;21091;-63
2022/03/08 05:25:55;;;;;;;32.80;17.90;;;;;;;0.03;100.00;100388.73;1688574;84;21052;-64
2022/03/08 05:28:24;;;;;;;31.35;17.57;;;;;;;0.08;100.00;100392.94;1704976;84;21044;-62
2022/03/08 05:30:51;;;;;;;27.30;16.30;;;;;;;0.08;100.00;100392.94;1688777;84;21056;-63
2022/03/08 05:33:17;;;;;;;24.05;15.43;;;;;;;0.07;100.00;100395.03;1705075;83;20988;-63
2022/03/08 05:35:44;;;;;;;23.30;14.80;;;;;;;0.14;100.00;100389.52;1705192;84;21060;-61
2022/03/08 05:38:10;;;;;;;25.60;14.23;;;;;;;0.05;100.00;100385.77;1705005;84;21852;-60
2022/03/08 05:40:37;;;;;;;22.35;14.43;;;;;;;0.12;100.00;100389.95;1688925;84;21044;-60
2022/03/08 05:43:04;;;;;;;29.87;16.95;;;;;;;0.09;100.00;100395.86;1704817;84;21051;-61
2022/03/08 05:45:30;;;;;;;25.68;14.93;;;;;;;0.17;100.00;100394.58;1705260;84;21540;-62
2022/03/08 05:47:57;;;;;;;24.37;14.47;;;;;;;0.19;100.00;100392.89;1704870;84;21107;-62
2022/03/08 05:50:24;;;;;;;24.23;15.08;;;;;;;0.27;100.00;100400.47;1705061;84;21075;-62
2022/03/08 05:52:53;;;;;;;25.17;15.20;;;;;;;0.23;100.00;100398.36;1704668;84;21124;-62
2022/03/08 05:55:20;;;;;;;23.57;15.35;;;;;;;0.24;100.00;100395.39;1705119;84;21041;-62
2022/03/08 05:57:47;;;;;;;25.88;15.30;;;;;;;0.36;100.00;100400.41;1704989;83;21079;-62
2022/03/08 06:00:15;;;;;;;26.05;16.05;;;;;;;0.52;100.00;100406.26;1716702;83;20997;-63
2022/03/08 06:02:42;;;;;;;24.80;14.23;;;;;;;0.28;100.00;100402.13;1719294;83;21036;-62
2022/03/08 06:05:09;;;;;;;24.82;15.58;;;;;;;0.32;100.00;100398.31;1716053;83;21094;-65
2022/03/08 06:07:36;;;;;;;27.37;15.32;;;;;;;0.38;100.00;100398.28;1712408;83;20990;-62
2022/03/08 06:10:07;;;;;;;23.38;15.23;;;;;;;0.52;100.00;100403.73;1711970;83;21466;-63
2022/03/08 06:12:36;;;;;;;24.50;14.90;;;;;;;0.39;100.00;100405.48;1709094;83;21037;-62
2022/03/08 06:15:05;;;;;;;24.05;13.60;;;;;;;0.42;100.00;100405.88;1711061;83;21451;-62
2022/03/08 06:17:34;;;;;;;23.38;14.95;;;;;;;0.26;100.00;100408.45;1675817;83;20951;-62
2022/03/08 06:20:03;;;;;;;28.32;15.50;;;;;;;0.18;100.00;100409.77;1711328;83;21022;-62
2022/03/08 06:22:32;;;;;;;22.62;14.80;;;;;;;0.47;100.00;100415.16;1709859;83;20964;-63
2022/03/08 06:24:59;;;;;;;23.52;14.58;;;;;;;0.62;100.00;100413.39;1711616;83;21015;-62
2022/03/08 06:27:25;;;;;;;24.92;15.40;;;;;;;0.47;100.00;100420.22;1712375;83;21003;-62
2022/03/08 06:29:52;;;;;;;22.55;14.10;;;;;;;0.59;100.00;100422.69;1709712;83;21015;-62
2022/03/08 06:32:20;;;;;;;25.17;15.08;;;;;;;0.50;100.00;100416.39;1693464;83;21015;-62
2022/03/08 06:34:47;;;;;;;26.77;15.40;;;;;;;0.57;100.00;100426.92;1712428;83;21050;-62
2022/03/08 06:37:13;;;;;;;29.05;16.70;;;;;;;0.67;100.00;100425.59;1708408;83;20987;-62
2022/03/08 06:39:40;;;;;;;26.95;16.48;;;;;;;0.88;100.00;100420.86;1711456;83;21014;-64
2022/03/08 06:42:08;;;;;;;29.63;16.17;;;;;;;0.91;100.00;100426.77;1712567;83;21038;-64
2022/03/08 06:44:38;;;;;;;24.43;15.80;;;;;;;0.96;100.00;100425.02;1713793;83;21523;-62
2022/03/08 06:47:06;;;;;;;23.07;14.78;;;;;;;0.93;100.00;100421.26;1711378;82;21000;-62
2022/03/08 06:49:36;;;;;;;23.20;14.30;;;;;;;0.71;100.00;100433.20;1708269;83;21007;-63
2022/03/08 06:52:04;;;;;;;20.70;13.88;;;;;;;0.91;100.00;100424.23;1696674;83;21073;-62
2022/03/08 06:54:32;;;;;;;23.75;14.43;;;;;;;0.98;100.00;100430.09;1696494;84;21483;-62
2022/03/08 06:56:59;;;;;;;20.57;13.78;;;;;;;0.97;100.00;100433.06;1696661;83;21113;-63
2022/03/08 06:59:26;;;;;;;22.02;14.53;;;;;;;1.14;100.00;100427.04;1696296;84;21039;-62
2022/03/08 07:01:53;;;;;;;23.55;14.55;;;;;;;1.35;100.00;100426.87;1696453;83;21174;-62
2022/03/08 07:04:20;;;;;;;22.58;14.25;;;;;;;1.42;100.00;100434.43;1696084;83;21117;-62
2022/03/08 07:06:46;;;;;;;25.55;14.45;;;;;;;1.41;100.00;100437.40;1683188;84;21111;-62
2022/03/08 07:09:13;;;;;;;23.10;13.88;;;;;;;1.53;100.00;100437.30;1679082;85;21090;-62
2022/03/08 07:11:40;;;;;;;22.22;13.83;;;;;;;1.75;100.00;100426.98;1678986;85;21047;-62
2022/03/08 07:14:08;;;;;;;26.97;14.75;;;;;;;1.64;100.00;100433.39;1679247;85;21078;-63
2022/03/08 07:16:35;;;;;;;21.95;14.23;;;;;;;1.74;100.00;100431.19;1659057;85;21015;-64
2022/03/08 07:19:02;;;;;;;22.75;13.88;;;;;;;1.93;100.00;100425.53;1683274;84;21023;-63
2022/03/08 07:21:30;;;;;;;24.23;13.93;;;;;;;2.03;100.00;100422.88;1693421;84;21003;-62
2022/03/08 07:23:57;;;;;;;22.65;13.88;;;;;;;2.04;100.00;100416.53;1691742;83;21114;-63
2022/03/08 07:26:24;;;;;;;21.87;13.88;;;;;;;2.09;100.00;100422.41;1694431;84;20967;-63
2022/03/08 07:28:51;;;;;;;24.10;14.60;;;;;;;2.14;100.00;100424.89;1693419;84;21151;-63
2022/03/08 07:31:17;;;;;;;22.10;14.30;;;;;;;2.35;100.00;100422.53;1691608;84;21074;-64
2022/03/08 07:33:45;;;;;;;22.07;14.30;;;;;;;2.43;100.00;100432.17;1693841;84;21047;-62
2022/03/08 07:36:11;;;;;;;23.67;14.55;;;;;;;2.52;100.00;100433.78;1691475;84;21094;-63
2022/03/08 07:38:38;;;;;;;20.37;13.65;;;;;;;2.39;100.00;100426.31;1693552;84;21502;-65
2022/03/08 07:41:05;;;;;;;23.42;13.72;;;;;;;2.08;100.00;100429.60;1693710;84;21019;-63
2022/03/08 07:43:36;;;;;;;20.70;13.60;;;;;;;2.50;100.00;100428.71;1691393;84;21075;-62
2022/03/08 07:46:06;;;;;;;21.27;14.00;;;;;;;2.45;100.00;100420.73;1692513;84;20992;-64
2022/03/08 07:48:33;;;;;;;22.22;14.33;;;;;;;2.38;100.00;100425.88;1695344;84;21031;-63
2022/03/08 07:51:00;;;;;;;22.93;14.53;;;;;;;2.28;100.00;100427.28;1707668;84;21051;-64
2022/03/08 07:53:27;;;;;;;25.92;14.33;;;;;;;2.25;100.00;100426.03;1707580;83;21074;-64
2022/03/08 07:55:55;;;;;;;25.27;15.05;;;;;;;2.31;100.00;100425.56;1707658;84;20996;-63
2022/03/08 07:58:22;;;;;;;24.32;14.23;;;;;;;2.59;100.00;100431.13;1686887;84;21527;-63
2022/03/08 08:00:49;;;;;;;24.05;14.10;;;;;;;2.76;100.00;100426.28;1707582;84;21074;-64
2022/03/08 08:03:16;;;;;;;25.35;15.13;;;;;;;2.81;100.00;100420.69;1707339;84;21048;-63
2022/03/08 08:05:42;;;;;;;25.90;15.03;;;;;;;2.86;100.00;100417.67;1710938;83;22143;-62
2022/03/08 08:08:10;;;;;;;23.35;15.20;;;;;;;2.89;100.00;100416.34;1725109;83;21114;-62
2022/03/08 08:10:40;;;;;;;23.32;14.10;;;;;;;3.09;100.00;100420.31;1725247;82;21031;-62
2022/03/08 08:13:07;;;;;;;22.95;14.10;;;;;;;2.82;100.00;100416.03;1725605;82;21510;-63
2022/03/08 08:15:36;;;;;;;23.90;14.73;;;;;;;3.07;100.00;100413.13;1725718;83;21019;-63
2022/03/08 08:18:02;;;;;;;23.62;14.00;;;;;;;3.30;100.00;100418.69;1725604;83;21018;-63
2022/03/08 08:20:32;;;;;;;22.37;14.50;;;;;;;3.11;100.00;100421.13;1725243;83;21062;-67
2022/03/08 08:22:58;;;;;;;20.88;13.18;;;;;;;3.37;100.00;100417.75;1725448;83;21050;-65
2022/03/08 08:25:25;;;;;;;22.30;14.45;;;;;;;3.30;100.00;100413.61;1725556;83;21558;-63
2022/03/08 08:27:54;;;;;;;20.12;13.40;;;;;;;3.05;100.00;100416.96;1725498;83;21106;-62
2022/03/08 08:30:22;;;;;;;23.42;14.35;;;;;;;3.26;100.00;100413.25;1725550;82;21026;-65
2022/03/08 08:32:52;;;;;;;20.50;13.30;;;;;;;3.36;100.00;100412.23;1725535;83;21617;-65
2022/03/08 08:35:22;;;;;;;16.75;11.50;;;;;;;3.59;100.00;100413.59;1725524;83;21034;-65
2022/03/08 08:37:47;;;;;;;19.12;12.13;;;;;;;3.47;100.00;100415.91;1725060;82;21098;-63
2022/03/08 08:40:14;;;;;;;21.87;13.25;;;;;;;3.32;100.00;100418.23;1725519;83;21118;-64
2022/03/08 08:42:42;;;;;;;22.77;13.53;;;;;;;3.38;100.00;100419.41;1725542;83;21105;-66
2022/03/08 08:45:10;;;;;;;21.77;12.30;;;;;;;3.26;100.00;100419.61;1707543;83;21095;-65
2022/03/08 08:47:38;;;;;;;19.52;12.85;;;;;;;3.38;100.00;100417.31;1725458;83;21054;-66
2022/03/08 08:50:07;;;;;;;19.65;12.23;;;;;;;3.52;100.00;100414.10;1725587;83;21576;-65
2022/03/08 08:52:36;;;;;;;15.60;10.30;;;;;;;3.60;100.00;100417.80;1707231;83;21077;-65
2022/03/08 08:55:04;;;;;;;14.33;10.10;;;;;;;3.45;99.78;100414.22;1725360;83;21098;-66
2022/03/08 08:57:33;;;;;;;16.90;12.03;;;;;;;3.90;97.67;100417.70;1725323;83;21027;-65
2022/03/08 09:00:00;;;;;;;19.65;11.95;;;;;;;3.48;99.89;100413.75;1725430;83;21090;-64
2022/03/08 09:02:27;;;;;;;18.77;11.88;;;;;;;3.54;100.00;100417.91;1725544;83;21051;-64
2022/03/08 09:04:54;;;;;;;17.90;12.07;;;;;;;3.76;99.96;100414.56;1725254;83;21078;-67
2022/03/08 09:07:20;;;;;;;19.17;11.85;;;;;;;3.75;100.00;100416.69;1725287;83;21153;-64
2022/03/08 09:09:49;;;;;;;18.70;12.15;;;;;;;3.54;100.00;100416.63;1725460;83;21062;-64
2022/03/08 09:12:17;;;;;;;17.17;11.50;;;;;;;3.97;100.00;100414.59;1725480;83;21276;-64
2022/03/08 09:14:44;;;;;;;19.50;11.15;;;;;;;4.06;97.73;100409.80;1725040;83;22184;-64
2022/03/08 09:17:11;;;;;;;17.87;11.40;;;;;;;4.24;95.18;100419.63;1725532;83;21002;-64
2022/03/08 09:19:38;;;;;;;14.87;9.98;;;;;;;4.03;94.19;100418.30;1725265;83;21090;-64
2022/03/08 09:22:04;;;;;;;15.05;10.10;;;;;;;3.64;93.78;100416.88;1725354;83;21534;-65
2022/03/08 09:24:33;;;;;;;14.55;9.78;;;;;;;3.56;93.43;100418.72;1725309;83;21035;-64
2022/03/08 09:26:59;;;;;;;14.80;10.58;;;;;;;3.52;94.46;100410.73;1725672;83;21058;-64
2022/03/08 09:29:25;;;;;;;18.30;9.95;;;;;;;3.37;96.74;100415.20;1707158;83;21093;-64
2022/03/08 09:31:54;;;;;;;14.78;10.20;;;;;;;3.39;98.13;100418.56;1725278;83;21106;-66
2022/03/08 09:34:20;;;;;;;17.73;10.18;;;;;;;3.38;97.82;100418.14;1725576;83;21479;-65
2022/03/08 09:36:47;;;;;;;16.30;10.85;;;;;;;3.11;97.51;100418.14;1725605;83;21164;-64
2022/03/08 09:39:14;;;;;;;15.08;9.63;;;;;;;3.50;98.84;100419.66;1725222;83;21058;-64
2022/03/08 09:41:41;;;;;;;15.63;9.85;;;;;;;3.43;94.53;100421.05;1725285;83;21043;-64
2022/03/08 09:44:13;;;;;;;12.82;9.03;;;;;;;3.45;91.44;100420.58;1725259;83;21106;-64
2022/03/08 09:46:43;;;;;;;15.28;10.00;;;;;;;3.22;91.98;100417.97;1707164;83;21002;-64
2022/03/08 09:49:10;;;;;;;18.42;11.55;;;;;;;3.07;93.19;100420.33;1725405;83;21017;-64
2022/03/08 09:51:38;;;;;;;15.45;10.10;;;;;;;3.01;96.19;100416.16;1725423;83;21517;-67
2022/03/08 09:54:06;;;;;;;14.75;10.10;;;;;;;2.89;95.22;100415.50;1725358;83;21070;-64
2022/03/08 09:56:35;;;;;;;13.98;9.93;;;;;;;3.06;95.99;100421.17;1725521;83;21034;-64
2022/03/08 09:59:02;;;;;;;14.93;10.20;;;;;;;3.36;95.80;100417.77;1725447;82;21018;-65
2022/03/08 10:01:30;;;;;;;15.15;10.25;;;;;;;3.52;93.77;100418.36;1725347;83;21097;-65
2022/03/08 10:03:56;;;;;;;15.90;10.28;;;;;;;3.60;94.46;100426.27;1707331;83;22172;-64
2022/03/08 10:06:23;;;;;;;14.73;10.00;;;;;;;3.51;93.34;100425.16;1709185;82;21071;-65
2022/03/08 10:08:52;;;;;;;14.53;9.35;;;;;;;3.56;92.02;100419.98;1690048;82;21047;-64
2022/03/08 10:11:19;;;;;;;14.53;9.53;;;;;;;3.80;92.37;100422.55;1710707;82;21568;-65
2022/03/08 10:13:50;;;;;;;16.05;9.68;;;;;;;3.51;91.11;100425.61;1738456;82;21536;-64
2022/03/08 10:16:23;;;;;;;14.93;9.93;;;;;;;3.38;89.85;100429.59;1738422;82;21040;-63
2022/03/08 10:19:01;;;;;;;15.45;10.13;;;;;;;3.38;90.07;100427.05;1738650;82;20992;-64
2022/03/08 10:21:38;;;;;;;15.45;10.40;;;;;;;3.52;90.45;100423.45;1739273;82;21002;-64
2022/03/08 10:24:20;;;;;;;14.33;9.98;;;;;;;3.78;89.83;100424.28;1739874;82;21023;-63
2022/03/08 10:26:58;;;;;;;16.55;9.48;;;;;;;3.37;88.24;100422.00;1739780;82;21075;-63
2022/03/08 10:29:33;;;;;;;16.30;9.38;;;;;;;3.73;88.08;100417.15;1738434;82;21016;-63
2022/03/08 10:32:19;;;;;;;17.82;9.93;;;;;;;3.97;86.51;100419.70;1739462;82;21083;-64
2022/03/08 10:34:58;;;;;;;13.53;9.48;;;;;;;4.22;85.25;100420.09;1739694;82;20973;-63
2022/03/08 10:37:24;;;;;;;14.78;10.25;;;;;;;4.25;84.46;100412.81;1731270;82;21000;-64
2022/03/08 10:39:55;;;;;;;15.95;10.10;;;;;;;4.26;85.97;100408.11;1727109;82;21523;-64
2022/03/08 10:42:26;;;;;;;15.50;10.03;;;;;;;4.49;85.84;100411.05;1724644;82;21076;-63
2022/03/08 10:45:10;;;;;;;14.85;9.80;;;;;;;4.61;83.90;100414.61;1726320;82;21481;-65
2022/03/08 10:47:47;;;;;;;15.45;9.90;;;;;;;4.76;82.21;100412.61;1725277;82;21012;-63
2022/03/08 10:50:17;;;;;;;13.75;9.05;;;;;;;4.12;82.02;100414.77;1726302;82;20998;-64
2022/03/08 10:52:47;;;;;;;15.32;9.40;;;;;;;4.27;82.48;100417.00;1725375;82;20952;-64
2022/03/08 10:55:21;;;;;;;14.28;9.40;;;;;;;3.98;83.45;100411.20;1707164;84;20987;-64
2022/03/08 10:57:54;;;;;;;22.65;13.40;;;;;;;4.08;85.54;100410.16;1708958;84;21063;-63
2022/03/08 11:00:30;;;;;;;13.30;9.20;;;;;;;3.99;85.34;100417.95;1709041;84;21496;-63
2022/03/08 11:03:05;;;;;;;15.20;9.95;;;;;;;3.59;83.98;100413.15;1676490;84;21610;-65
2022/03/08 11:05:39;;;;;;;15.38;10.18;;;;;;;3.23;85.91;100407.39;1704649;84;21020;-64
2022/03/08 11:08:08;;;;;;;14.47;9.58;;;;;;;3.09;89.56;100413.95;1689366;84;21110;-62
2022/03/08 11:10:36;;;;;;;14.98;9.33;;;;;;;2.91;92.14;100418.42;1686490;84;21055;-65